Terminal Aerodrome Forecast
Issued by NWS Wilmington, OH

Current Version | Previous Version | Graphics & Text | Print | Product List | Glossary On
Versions: 1 2 3 4 5 6 7 8 9 10 11 12 13 14 15 16 17 18 19 20 21
000
FTUS41 KILN 170549
TAFDAY
TAF
KDAY 170549Z 1706/1806 00000KT P6SM OVC022
     FM170900 VRB03KT P6SM BKN018
     FM171200 VRB03KT P6SM BKN250
     FM171400 15008KT P6SM BKN250
     FM180300 18013KT 5SM -SHRA BR OVC050 WS020/20040KT=

USA.gov is the U.S. government's official web portal to all federal, state and local government web resources and services.